4XCWZ LLHZ-LLHZ

Flight info

Callsign 4XCWZ
Flight time 0h 5m
Altitude 800
Route CVFR
Aircraft C172/L-VD/A

Departure

Time 2026-04-17 15:50
Airport Herzliya Airport (LLHZ)

Arrival

Time 2026-04-17 15:55
Airport Herzliya Airport (LLHZ)
Time Latitude Longitude Altitude Speed Heading
2026-04-17 15:41 32.17863 34.83846 121 ft 0 kts 289°
2026-04-17 15:46 32.17880 34.83828 120 ft 5 kts 358°
2026-04-17 15:47 32.17891 34.83827 121 ft 0 kts 351°
2026-04-17 15:48 32.17894 34.83827 121 ft 0 kts 358°
2026-04-17 15:48 32.17900 34.83829 121 ft 2 kts 13°
2026-04-17 15:48 32.17928 34.83810 121 ft 7 kts 287°
2026-04-17 15:49 32.18002 34.83558 113 ft 57 kts 290°
2026-04-17 15:49 32.18134 34.83089 264 ft 60 kts 287°
2026-04-17 15:49 32.18353 34.82636 385 ft 66 kts 346°
2026-04-17 15:49 32.18787 34.82818 552 ft 67 kts 24°
2026-04-17 15:50 32.19191 34.83110 664 ft 76 kts 75°
2026-04-17 15:50 32.18987 34.83680 798 ft 81 kts 100°
2026-04-17 15:50 32.18899 34.84337 932 ft 81 kts 90°
2026-04-17 15:50 32.18742 34.84992 980 ft 83 kts 105°
2026-04-17 15:51 32.18252 34.85310 854 ft 90 kts 194°
2026-04-17 15:51 32.17689 34.85069 722 ft 89 kts 217°
2026-04-17 15:51 32.17645 34.84516 611 ft 73 kts 300°
2026-04-17 15:51 32.17872 34.83957 326 ft 73 kts 298°
2026-04-17 15:52 32.18006 34.83470 268 ft 63 kts 284°
2026-04-17 15:52 32.18142 34.82977 298 ft 63 kts 287°
2026-04-17 15:52 32.18444 34.82681 410 ft 63 kts 10°
2026-04-17 15:52 32.18880 34.82752 541 ft 60 kts 354°
2026-04-17 15:53 32.19247 34.82890 658 ft 68 kts 62°
2026-04-17 15:53 32.19309 34.83480 760 ft 75 kts 65°
2026-04-17 15:53 32.19277 34.84110 876 ft 83 kts 106°
2026-04-17 15:53 32.18831 34.84592 871 ft 96 kts 151°
2026-04-17 15:54 32.18410 34.85027 999 ft 81 kts 81°
2026-04-17 15:54 32.17913 34.85360 755 ft 90 kts 183°
2026-04-17 15:54 32.17633 34.84992 633 ft 64 kts 271°
2026-04-17 15:54 32.17725 34.84478 400 ft 66 kts 293°
2026-04-17 15:55 32.17870 34.83984 203 ft 60 kts 294°
2026-04-17 15:55 32.18001 34.83576 114 ft 48 kts 288°
2026-04-17 15:55 32.18123 34.83172 242 ft 50 kts 288°
2026-04-17 15:55 32.18255 34.82746 336 ft 59 kts 326°
2026-04-17 15:56 32.18711 34.82820 413 ft 73 kts 12°
2026-04-17 15:56 32.19131 34.82981 662 ft 60 kts 15°
2026-04-17 15:56 32.19324 34.83384 806 ft 67 kts 99°
2026-04-17 15:56 32.19003 34.83939 825 ft 87 kts 122°
2026-04-17 15:57 32.18717 34.84595 882 ft 92 kts 105°
2026-04-17 15:57 32.18546 34.85381 774 ft 96 kts 104°
2026-04-17 15:57 32.18034 34.85592 721 ft 76 kts 189°
2026-04-17 15:57 32.17619 34.85374 692 ft 62 kts 198°
2026-04-17 15:58 32.17486 34.85033 593 ft 55 kts 302°
2026-04-17 15:58 32.17651 34.84589 490 ft 59 kts 290°
2026-04-17 15:58 32.17828 34.84101 293 ft 71 kts 290°
2026-04-17 15:58 32.17999 34.83564 114 ft 60 kts 293°
2026-04-17 15:59 32.18126 34.83101 188 ft 62 kts 284°
2026-04-17 15:59 32.18286 34.82645 330 ft 64 kts 343°
2026-04-17 15:59 32.18749 34.82780 444 ft 71 kts
2026-04-17 15:59 32.19213 34.82889 626 ft 69 kts 35°
2026-04-17 16:00 32.19382 34.83447 806 ft 67 kts 77°
2026-04-17 16:00 32.19218 34.84028 854 ft 86 kts 126°
2026-04-17 16:00 32.18763 34.84561 859 ft 92 kts 135°
2026-04-17 16:00 32.18318 34.85088 765 ft 89 kts 139°
2026-04-17 16:01 32.17765 34.85226 621 ft 71 kts 190°
2026-04-17 16:01 32.17614 34.84814 464 ft 60 kts 292°
2026-04-17 16:01 32.17756 34.84349 362 ft 63 kts 291°
2026-04-17 16:01 32.17910 34.83850 171 ft 63 kts 293°
2026-04-17 16:02 32.18047 34.83409 146 ft 56 kts 285°
2026-04-17 16:02 32.18130 34.82939 302 ft 57 kts 276°
2026-04-17 16:02 32.18388 34.82714 428 ft 59 kts 356°
2026-04-17 16:02 32.18826 34.82757 556 ft 64 kts 356°
2026-04-17 16:03 32.19222 34.82875 712 ft 67 kts 39°
2026-04-17 16:03 32.19325 34.83464 800 ft 82 kts 95°
2026-04-17 16:03 32.19060 34.84093 913 ft 84 kts 118°
2026-04-17 16:03 32.18778 34.84748 780 ft 97 kts 108°
2026-04-17 16:04 32.18421 34.85326 692 ft 87 kts 156°
2026-04-17 16:04 32.17828 34.85309 571 ft 79 kts 197°
2026-04-17 16:04 32.17581 34.84856 506 ft 65 kts 285°
2026-04-17 16:04 32.17741 34.84346 390 ft 66 kts 295°
2026-04-17 16:05 32.17914 34.83829 174 ft 66 kts 293°
2026-04-17 16:05 32.18032 34.83392 213 ft 50 kts 284°
2026-04-17 16:05 32.18118 34.82951 330 ft 58 kts 277°
2026-04-17 16:05 32.18391 34.82716 474 ft 61 kts 20°
2026-04-17 16:06 32.18828 34.82897 605 ft 66 kts
2026-04-17 16:06 32.19257 34.83100 728 ft 74 kts 43°
2026-04-17 16:06 32.19287 34.83746 793 ft 90 kts 106°
2026-04-17 16:06 32.18942 34.84395 797 ft 96 kts 119°
2026-04-17 16:07 32.18572 34.85069 635 ft 91 kts 124°
2026-04-17 16:07 32.18061 34.85273 502 ft 75 kts 191°
2026-04-17 16:07 32.17679 34.85018 453 ft 58 kts 248°
2026-04-17 16:07 32.17705 34.84576 353 ft 58 kts 295°
2026-04-17 16:08 32.17829 34.84117 240 ft 61 kts 294°
2026-04-17 16:08 32.17969 34.83673 116 ft 47 kts 291°
2026-04-17 16:08 32.18009 34.83532 113 ft 16 kts 286°
2026-04-17 16:08 32.18064 34.83342 107 ft 4 kts 253°
2026-04-17 16:09 32.18045 34.83331 106 ft 3 kts 187°
2026-04-17 16:09 32.18042 34.83331 106 ft 0 kts 171°
2026-04-17 16:09 32.18023 34.83366 107 ft 9 kts 104°
2026-04-17 16:10 32.17994 34.83470 112 ft 15 kts 110°
2026-04-17 16:10 32.17955 34.83597 114 ft 18 kts 110°
2026-04-17 16:10 32.17912 34.83746 119 ft 17 kts 110°
2026-04-17 16:10 32.17884 34.83835 121 ft 5 kts 128°
2026-04-17 16:11 32.17867 34.83833 120 ft 5 kts 198°
2026-04-17 16:11 32.17856 34.83836 120 ft 0 kts 129°